Pagina principale
METAR-TAF:

METAR-TAF

Aeroporti :

Aeroporto di Crotone

Crotone, Italia

latitudine: 39-00N, longitudine: 017-04E, altezza: 155 m

Osservazione

Il bollettino è stato emesso 8 ore e 55 minuti fa, alle 16:50 UTC
Vento 10 kt da nord/nord-est
Temperature 35°C
Umidità 23%
Pressione 1015 hPa
Visibilità 10 km o più
nessuna nube inferiore a 1500 m e nessun cumulonembo

METAR: LIBC 201650Z 02010KT CAVOK 35/11 Q1015

Ora: 03:45 (01:45 UTC)

Previsione

Il bollettino è stato emesso 14 ore e 45 minuti fa, alle 11:00 UTC
Previsione valida dal 20 alle 12 UTC al 21 alle 12 UTC
Vento 15 kt da nord/nord-est
Visibilità 10 km o più
nessuna nube inferiore a 1500 m e nessun cumulonembo
Temporaneamente
dal 20 alle 12 UTC al 20 alle 18 UTC
Vento 18 kt da nord/nord-est con raffiche fino a 28 kt

TAF: LIBC 201100Z 2012/2112 02015KT CAVOK TEMPO 2012/2018 02018G28KT

Osservazioni e previsioni meteorologiche di più di 4000 aeroporti (messaggi METAR e TAF).

Le stazioni disponibili sono rappresentate dai dischi gialli e rossi sulla carta.

Puntare il mouse per vedere il nome della stazione.

Clicca sopra per visualizzare le osservazioni e previsioni meteorologiche.

Per cambiare la mappa : fare clic sui pulsanti verdi con una croce nera per ingrandire, il pulsante verde con un trattino per diminuire, o sulla freccia verde per le mappe adiacenti.


METAR-TAF: